ADDS METAR Data INFO
IDs: Format: Raw Decoded Include TAF

Data at: 0046 UTC 22 Oct 2017

KRPJ 220035Z AUTO 16009G14KT 10SM SCT045 20/15 A2997 RMK AO2 LTG DSNT W T02040146
KRPJ 220015Z AUTO 16009KT 10SM SCT045 SCT085 21/15 A2997 RMK AO2 LTG DSNT W T02070146
KRPJ 212355Z AUTO 16009KT 10SM CLR 21/15 A2997 RMK AO2 T02080150 10259 20208
KRPJ 212335Z AUTO 17009G15KT 10SM CLR 22/15 A2996 RMK AO2 T02150150
KRPJ 212310Z AUTO 16010G14KT 10SM SCT085 22/15 A2996 RMK AO2 T02200151
KRPJ 212255Z AUTO 17011G16KT 10SM CLR 22/15 A2996 RMK AO2 T02220150
KRPJ 212235Z AUTO 17014G22KT 10SM CLR 23/15 A2996 RMK AO2 T02310151
KRPJ 212215Z AUTO 18011G22KT 10SM CLR 23/15 A2995 RMK AO2 T02340150
KRPJ 212155Z AUTO 18014G21KT 10SM CLR 24/15 A2995 RMK AO2 T02410150
KRPJ 212135Z AUTO 18014G24KT 10SM CLR 25/15 A2994 RMK AO2 T02460147
KRPJ 212115Z AUTO 17012G20KT 10SM CLR 26/15 A2994 RMK AO2 T02550145
KRPJ 212055Z AUTO 17019G23KT 10SM CLR 26/14 A2995 RMK AO2 T02550141
KRPJ 212035Z AUTO 18014G22KT 10SM CLR 26/14 A2994 RMK AO2 T02570138
KRPJ 212015Z AUTO 17016G21KT 10SM CLR 26/13 A2994 RMK AO2 T02570133
KRPJ 211955Z AUTO 18016G23KT 10SM CLR 25/13 A2994 RMK AO2 T02540133
KRPJ 211935Z AUTO 17013G25KT 10SM CLR 25/13 A2994 RMK AO2 T02520132
KRPJ 211915Z AUTO 16016G23KT 10SM CLR 25/13 A2994 RMK AO2 T02510129
KRPJ 211850Z AUTO 18016G23KT 10SM CLR 25/12 A2995 RMK AO2 T02460123
KRPJ 211835Z AUTO 17013G21KT 10SM CLR 24/12 A2996 RMK AO2 T02420122
KRPJ 211815Z AUTO 17016G23KT 10SM CLR 24/12 A2998 RMK AO2 T02360116
KRPJ 211755Z AUTO 18014G22KT 10SM CLR 23/12 A2999 RMK AO2 6//// T02330123
KRPJ 211735Z AUTO 17013G18KT 10SM CLR 23/13 A3000 RMK AO2 T02340125
KRPJ 211715Z AUTO 18013G21KT 10SM CLR 22/13 A3001 RMK AO2 T02240125
KRPJ 211655Z AUTO 18014G19KT 10SM CLR 22/13 A3002 RMK AO2 T02200125
KRPJ 211635Z AUTO 18012G17KT 10SM CLR 22/13 A3002 RMK AO2 T02210125
KRPJ 211615Z AUTO 20013G18KT 10SM CLR 22/12 A3003 RMK AO2 LTG DSNT N T02150123
KRPJ 211555Z AUTO 18011G19KT 10SM CLR 21/12 A3003 RMK AO2 T02090120
KRPJ 211535Z AUTO 19013G18KT 10SM CLR 20/12 A3004 RMK AO2 T02000117
KRPJ 211515Z AUTO 18010G18KT 10SM CLR 20/12 A3004 RMK AO2 T01950116
KRPJ 211455Z AUTO 18011G16KT 140V200 10SM CLR 18/11 A3003 RMK AO2 6//// T01780112
KRPJ 211435Z AUTO 17011KT 10SM CLR 17/11 A3003 RMK AO2 T01710110
KRPJ 211415Z AUTO 17008KT 10SM CLR 16/11 A3003 RMK AO2 T01610106
KRPJ 211355Z AUTO 16008KT 10SM CLR 16/11 A3003 RMK AO2 T01570105
KRPJ 211335Z AUTO 17010G15KT 10SM CLR 15/10 A3003 RMK AO2 T01510103
KRPJ 211315Z AUTO 16004KT 10SM CLR 14/10 A3003 RMK AO2 LTG DSNT NW T01420102
KRPJ 211255Z AUTO 16005KT 10SM SCT120 14/10 A3002 RMK AO2 T01390100
KRPJ 211235Z AUTO 15007KT 10SM SCT120 14/10 A3001 RMK AO2 T01400100
KRPJ 211215Z AUTO 15008KT 10SM SCT120 14/10 A3002 RMK AO2 T01400102
KRPJ 211155Z AUTO 15007KT 10SM SCT110 14/10 A3002 RMK AO2 T01370102 10168 20135
KRPJ 211135Z AUTO 15005KT 10SM SCT110 14/10 A3003 RMK AO2 T01360101
KRPJ 211115Z AUTO 17007KT 10SM VCTS CLR 14/10 A3003 RMK AO2 LTG DSNT W T01430101
KRPJ 211055Z AUTO 17006KT 10SM CLR 15/10 A3003 RMK AO2 T01460102
KRPJ 211035Z AUTO 17005KT 10SM CLR 15/10 A3002 RMK AO2 LTG DSNT SW T01500103
KRPJ 211015Z AUTO 17006KT 10SM CLR 15/10 A3002 RMK AO2 T01490103
KRPJ 210955Z AUTO 16006KT 10SM CLR 16/11 A3001 RMK AO2 T01550106
KRPJ 210935Z AUTO 16007KT 10SM BKN110 16/11 A3002 RMK AO2 T01570107
KRPJ 210915Z AUTO 17005KT 10SM BKN110 16/11 A3003 RMK AO2 T01550106
KRPJ 210855Z AUTO 16005KT 10SM SCT110 15/11 A3003 RMK AO2 T01500105
KRPJ 210835Z AUTO 16004KT 10SM BKN110 15/10 A3003 RMK AO2 T01490104
KRPJ 210815Z AUTO 15005KT 10SM SCT110 15/10 A3003 RMK AO2 T01450101
KRPJ 210755Z AUTO 16005KT 10SM BKN120 15/10 A3003 RMK AO2 LTG DSNT W T01500103
KRPJ 210735Z AUTO 16005KT 10SM -RA BKN110 15/10 A3003 RMK AO2 T01510103
KRPJ 210715Z AUTO 16006KT 10SM SCT110 15/10 A3003 RMK AO2 T01540100
KRPJ 210655Z AUTO 16005KT 10SM SCT110 15/10 A3003 RMK AO2 T01540099
KRPJ 210635Z AUTO 16003KT 10SM CLR 16/10 A3003 RMK AO2 T01570097
KRPJ 210615Z AUTO 15004KT 10SM CLR 17/10 A3003 RMK AO2 T01650096
KRPJ 210555Z AUTO 16007KT 10SM CLR 17/10 A3003 RMK AO2 T01680095 10182 20136 402660081
KRPJ 210535Z AUTO 17007KT 10SM CLR 17/10 A3003 RMK AO2 T01690095
KRPJ 210515Z AUTO 18007KT 10SM CLR 17/10 A3004 RMK AO2 T01650095
KRPJ 210455Z AUTO 15004KT 10SM CLR 14/09 A3004 RMK AO2 T01440090
KRPJ 210435Z AUTO 14004KT 10SM CLR 14/09 A3003 RMK AO2 T01400086
KRPJ 210415Z AUTO 14005KT 10SM CLR 14/08 A3003 RMK AO2 T01360083
KRPJ 210355Z AUTO 15005KT 10SM CLR 14/08 A3004 RMK AO2 T01420083
KRPJ 210335Z AUTO 16005KT 10SM CLR 15/08 A3004 RMK AO2 T01520082
KRPJ 210315Z AUTO 18005KT 10SM CLR 16/08 A3004 RMK AO2 T01580082
KRPJ 210255Z AUTO 16007KT 10SM CLR 16/08 A3003 RMK AO2 T01570083
KRPJ 210235Z AUTO 16006KT 10SM CLR 16/08 A3003 RMK AO2 T01640083
KRPJ 210215Z AUTO 16007KT 10SM CLR 17/08 A3003 RMK AO2 T01700083
KRPJ 210155Z AUTO 16006KT 10SM CLR 18/09 A3003 RMK AO2 T01750085
KRPJ 210135Z AUTO 16006KT 10SM CLR 18/09 A3002 RMK AO2 T01770089
KRPJ 210115Z AUTO 16006KT 10SM CLR 18/09 A3002 RMK AO2 T01800090
KRPJ 210055Z AUTO 16007KT 10SM CLR 18/09 A3002 RMK AO2 T01770090
KRPJ 210035Z AUTO 16006KT 10SM CLR 18/09 A3003 RMK AO2 T01750090
KRPJ 210015Z AUTO 16005KT 10SM CLR 18/09 A3002 RMK AO2 T01800092
KRPJ 202355Z AUTO 15006KT 10SM CLR 18/10 A3002 RMK AO2 T01820095 10266 20182
KRPJ 202335Z AUTO 15006KT 10SM CLR 19/10 A3002 RMK AO2 T01850097
KRPJ 202315Z AUTO 16006KT 10SM CLR 20/10 A3002 RMK AO2 T02030098
KRPJ 202255Z AUTO 16007KT 10SM CLR 22/10 A3002 RMK AO2 T02200098
KRPJ 202235Z AUTO 17008KT 10SM CLR 23/10 A3003 RMK AO2 T02320097
KRPJ 202215Z AUTO 17008G14KT 10SM CLR 24/10 A3003 RMK AO2 T02400099
KRPJ 202155Z AUTO 17008KT 10SM CLR 24/10 A3003 RMK AO2 T02360100
KRPJ 202135Z AUTO 18007KT 10SM CLR 24/10 A3004 RMK AO2 T02390100
KRPJ 202115Z AUTO 17009KT 10SM CLR 24/09 A3004 RMK AO2 T02420093
KRPJ 202055Z AUTO 17008KT 10SM CLR 25/10 A3004 RMK AO2 T02470096
KRPJ 202035Z AUTO 17011G16KT 10SM CLR 25/09 A3005 RMK AO2 T02530090
KRPJ 202015Z AUTO 18009G16KT 10SM CLR 26/10 A3005 RMK AO2 T02600097
KRPJ 201955Z AUTO 17011KT 10SM CLR 26/10 A3006 RMK AO2 T02590099
KRPJ 201935Z AUTO 19010G17KT 10SM CLR 26/09 A3006 RMK AO2 T02550093
KRPJ 201915Z AUTO 19010G18KT 10SM CLR 26/09 A3007 RMK AO2 T02560093
KRPJ 201855Z AUTO 18011G15KT 10SM CLR 26/10 A3008 RMK AO2 T02550103
KRPJ 201835Z AUTO 20009G16KT 10SM CLR 25/10 A3009 RMK AO2 T02530102
KRPJ 201815Z AUTO 20010KT 10SM CLR 25/11 A3009 RMK AO2 T02490106
KRPJ 201755Z AUTO 18008G14KT 10SM CLR 24/11 A3011 RMK AO2 T02430110 10243 20081
KRPJ 201735Z AUTO 20009KT 10SM CLR 24/12 A3012 RMK AO2 T02420115
KRPJ 201715Z AUTO 20006KT 10SM CLR 23/11 A3013 RMK AO2 T02320112
KRPJ 201655Z AUTO 22008KT 10SM CLR 23/11 A3014 RMK AO2 T02290110
KRPJ 201635Z AUTO 21006KT 10SM CLR 23/11 A3014 RMK AO2 T02270110
KRPJ 201615Z AUTO 22006KT 10SM CLR 22/11 A3015 RMK AO2 T02180112
KRPJ 201555Z AUTO 22006KT 10SM CLR 21/11 A3015 RMK AO2 T02090111
KRPJ 201535Z AUTO 20005KT 10SM CLR 20/11 A3016 RMK AO2 T01980109
KRPJ 201515Z AUTO 22006KT 10SM CLR 19/11 A3017 RMK AO2 T01880106
KRPJ 201455Z AUTO 22006KT 10SM CLR 18/11 A3017 RMK AO2 T01830107
KRPJ 201435Z AUTO 21007KT 10SM CLR 17/11 A3017 RMK AO2 T01710106
KRPJ 201415Z AUTO 20006KT 10SM CLR 16/11 A3017 RMK AO2 T01570105
KRPJ 201355Z AUTO 19004KT 10SM CLR 14/11 A3017 RMK AO2 T01420106
KRPJ 201335Z AUTO 19004KT 10SM CLR 13/10 A3017 RMK AO2 T01250100
KRPJ 201315Z AUTO 16003KT 10SM CLR 11/09 A3016 RMK AO2 T01070092
KRPJ 201255Z AUTO 17004KT 10SM CLR 10/09 A3016 RMK AO2 T00950086